Time;durP1;ratioP1;P1;durP2;ratioP2;P2;SDS_P1;SDS_P2;PMS_P1;PMS_P2;Temp;Humidity;BMP_temperature;BMP_pressure;BME280_temperature;BME280_humidity;BME280_pressure;Samples;Min_cycle;Max_cycle;Signal;HPM_P1;HPM_P2
2021/07/03 00:00:46;;;;;;;13.80;6.35;;;;;;;21.64;100.00;100121.96;1655847;85;20889;-86
2021/07/03 00:03:11;;;;;;;13.83;5.83;;;;;;;21.63;100.00;100117.05;1655900;86;21648;-88
2021/07/03 00:05:37;;;;;;;14.85;6.53;;;;;;;21.60;100.00;100119.70;1655780;86;21170;-85
2021/07/03 00:08:04;;;;;;;17.75;6.33;;;;;;;21.59;100.00;100116.16;1653773;86;20968;-86
2021/07/03 00:10:30;;;;;;;14.23;5.72;;;;;;;21.60;100.00;100122.44;1655793;86;21003;-88
2021/07/03 00:12:56;;;;;;;16.10;6.15;;;;;;;21.60;100.00;100120.48;1655815;86;21047;-86
2021/07/03 00:15:22;;;;;;;13.72;6.37;;;;;;;21.64;100.00;100124.70;1655740;86;21755;-84
2021/07/03 00:17:52;;;;;;;12.75;6.03;;;;;;;21.62;100.00;100127.81;1655722;85;21862;-85
2021/07/03 00:20:18;;;;;;;17.73;5.80;;;;;;;21.63;100.00;100134.09;1618372;88;21546;-86
2021/07/03 00:22:45;;;;;;;17.95;6.17;;;;;;;21.63;100.00;100133.51;1618411;88;21526;-85
2021/07/03 00:25:11;;;;;;;13.20;6.03;;;;;;;21.61;100.00;100126.19;1618724;88;21060;-85
2021/07/03 00:27:38;;;;;;;15.83;6.60;;;;;;;21.57;100.00;100129.41;1618441;88;21543;-83
2021/07/03 00:30:06;;;;;;;11.50;6.22;;;;;;;21.54;100.00;100135.00;1618566;88;21141;-80
2021/07/03 00:32:32;;;;;;;13.22;6.83;;;;;;;21.49;100.00;100138.55;1618392;88;21058;-84
2021/07/03 00:34:58;;;;;;;15.80;6.03;;;;;;;21.46;100.00;100134.55;1618157;88;20932;-83
2021/07/03 00:37:24;;;;;;;16.25;6.35;;;;;;;21.43;100.00;100129.76;1618491;88;20996;-81
2021/07/03 00:39:50;;;;;;;13.50;6.15;;;;;;;21.39;100.00;100124.75;1618494;88;21657;-83
2021/07/03 00:42:16;;;;;;;14.23;6.05;;;;;;;21.37;100.00;100123.48;1618367;88;21233;-83
2021/07/03 00:44:42;;;;;;;17.67;6.83;;;;;;;21.36;100.00;100124.06;1618230;88;20975;-83
2021/07/03 00:47:09;;;;;;;20.37;5.97;;;;;;;21.36;100.00;100119.13;1618394;88;20995;-83
2021/07/03 00:49:36;;;;;;;15.10;6.17;;;;;;;21.33;100.00;100115.13;1618455;88;21054;-83
2021/07/03 00:52:06;;;;;;;15.00;6.35;;;;;;;21.27;100.00;100116.51;1618624;88;21075;-81
2021/07/03 00:54:36;;;;;;;17.55;6.30;;;;;;;21.26;100.00;100113.52;1596791;88;21181;-83
2021/07/03 00:57:05;;;;;;;13.80;6.42;;;;;;;21.26;100.00;100108.83;1618577;88;21054;-89
2021/07/03 00:59:36;;;;;;;20.75;7.25;;;;;;;21.26;100.00;100103.35;1618570;88;21083;-83
2021/07/03 01:02:05;;;;;;;18.50;7.20;;;;;;;21.24;100.00;100100.75;1556702;92;21079;-86
2021/07/03 01:04:31;;;;;;;14.10;6.28;;;;;;;21.19;100.00;100103.72;1559650;91;21697;-86
2021/07/03 01:06:57;;;;;;;21.90;5.85;;;;;;;21.15;100.00;100106.89;1559382;92;21211;-84
2021/07/03 01:09:24;;;;;;;22.40;6.25;;;;;;;21.06;100.00;100104.27;1559436;92;21032;-84
2021/07/03 01:11:51;;;;;;;19.15;5.42;;;;;;;21.02;100.00;100102.00;1559567;92;21104;-84
2021/07/03 01:14:20;;;;;;;20.15;6.65;;;;;;;21.04;100.00;100107.94;1559492;92;21040;-84
2021/07/03 01:16:47;;;;;;;14.58;5.87;;;;;;;21.01;100.00;100109.42;1565151;90;21066;-83
2021/07/03 01:19:14;;;;;;;20.05;6.67;;;;;;;20.99;100.00;100108.95;1592908;90;21406;-85
2021/07/03 01:21:43;;;;;;;12.43;5.87;;;;;;;20.99;100.00;100108.95;1592978;90;21019;-84
2021/07/03 01:24:09;;;;;;;17.32;5.53;;;;;;;20.93;100.00;100103.47;1590009;90;21082;-84
2021/07/03 01:26:44;;;;;;;11.18;5.22;;;;;;;20.85;100.00;100102.46;1596175;89;20919;-83
2021/07/03 01:29:11;;;;;;;10.60;5.83;;;;;;;20.81;100.00;100102.89;1597186;89;21115;-84
2021/07/03 01:31:43;;;;;;;13.80;5.17;;;;;;;20.75;100.00;100094.67;1597184;89;21103;-84
2021/07/03 01:34:09;;;;;;;12.30;5.42;;;;;;;20.71;100.00;100097.08;1597249;89;21018;-84
2021/07/03 01:36:37;;;;;;;22.37;6.17;;;;;;;20.67;100.00;100099.67;1597196;89;21110;-82
2021/07/03 01:39:06;;;;;;;14.90;6.03;;;;;;;20.64;100.00;100097.62;1597177;89;21577;-85
2021/07/03 01:41:32;;;;;;;16.23;5.28;;;;;;;20.62;100.00;100095.81;1606032;89;21087;-87
2021/07/03 01:43:58;;;;;;;17.62;6.20;;;;;;;20.60;100.00;100096.70;1605976;89;21815;-84
2021/07/03 01:46:24;;;;;;;17.77;5.97;;;;;;;20.56;100.00;100099.88;1606155;89;20934;-82
2021/07/03 01:48:50;;;;;;;18.65;6.37;;;;;;;20.54;100.00;100091.23;1606126;89;21060;-84
2021/07/03 01:51:16;;;;;;;13.95;6.45;;;;;;;20.51;100.00;100093.24;1604154;88;21052;-83
2021/07/03 01:53:43;;;;;;;30.40;6.75;;;;;;;20.48;100.00;100085.70;1593338;88;20926;-86
2021/07/03 01:56:10;;;;;;;17.55;6.15;;;;;;;20.45;100.00;100090.49;1601397;89;21169;-83
2021/07/03 01:58:37;;;;;;;12.45;5.50;;;;;;;20.42;100.00;100087.28;1601409;89;21035;-84
2021/07/03 02:01:05;;;;;;;16.10;5.72;;;;;;;20.41;100.00;100089.80;1601543;89;21059;-84
2021/07/03 02:03:31;;;;;;;15.90;6.28;;;;;;;20.40;100.00;100095.02;1601432;89;21054;-82
2021/07/03 02:05:57;;;;;;;22.22;6.20;;;;;;;20.42;100.00;100094.70;1601566;89;21042;-84
2021/07/03 02:08:24;;;;;;;22.27;5.90;;;;;;;20.43;100.00;100086.14;1601201;89;21153;-83
2021/07/03 02:10:50;;;;;;;15.40;6.15;;;;;;;20.45;100.00;100080.34;1601339;89;21042;-83
2021/07/03 02:13:21;;;;;;;19.77;5.90;;;;;;;20.44;100.00;100082.83;1601354;89;21059;-83
2021/07/03 02:15:47;;;;;;;13.28;6.08;;;;;;;20.43;100.00;100073.81;1601347;89;21035;-83
2021/07/03 02:18:13;;;;;;;27.10;6.97;;;;;;;20.48;100.00;100085.70;1601445;89;20927;-80
2021/07/03 02:20:39;;;;;;;15.28;6.55;;;;;;;20.48;100.00;100078.86;1601430;89;21120;-83
2021/07/03 02:23:05;;;;;;;17.45;7.03;;;;;;;20.52;100.00;100081.97;1601255;89;21550;-83
2021/07/03 02:25:34;;;;;;;20.43;7.20;;;;;;;20.58;100.00;100081.19;1601240;89;21082;-80
2021/07/03 02:28:00;;;;;;;16.55;7.37;;;;;;;20.66;100.00;100086.34;1601335;89;21105;-83
2021/07/03 02:30:27;;;;;;;18.52;7.10;;;;;;;20.78;100.00;100090.46;1601721;88;21035;-82
2021/07/03 02:32:53;;;;;;;23.07;7.28;;;;;;;20.86;100.00;100090.35;1601380;89;21154;-80
2021/07/03 02:35:20;;;;;;;17.77;7.12;;;;;;;20.95;100.00;100092.19;1601360;89;21070;-83
2021/07/03 02:37:47;;;;;;;14.13;7.45;;;;;;;21.00;100.00;100094.68;1614976;86;20996;-83
2021/07/03 02:40:16;;;;;;;20.17;7.53;;;;;;;21.08;100.00;100104.16;1656363;86;21019;-83
2021/07/03 02:42:42;;;;;;;23.98;7.30;;;;;;;21.17;100.00;100115.58;1656773;86;21051;-87
2021/07/03 02:45:11;;;;;;;19.35;7.45;;;;;;;21.29;100.00;100107.34;1658839;85;21089;-84
2021/07/03 02:47:39;;;;;;;15.48;6.67;;;;;;;21.31;100.00;100100.38;1658474;86;21036;-84
2021/07/03 02:50:08;;;;;;;16.85;6.90;;;;;;;21.31;100.00;100100.38;1656685;86;21003;-80
2021/07/03 02:52:34;;;;;;;19.50;7.35;;;;;;;21.40;100.00;100104.98;1657230;86;21020;-86
2021/07/03 02:55:00;;;;;;;13.22;6.85;;;;;;;21.52;100.00;100096.73;1649835;86;21656;-83
2021/07/03 02:57:26;;;;;;;15.50;6.97;;;;;;;21.66;100.00;100101.85;1658280;86;21162;-84
2021/07/03 02:59:52;;;;;;;19.75;7.30;;;;;;;21.78;100.00;100105.35;1657424;86;21026;-83
2021/07/03 03:02:18;;;;;;;22.93;7.47;;;;;;;21.81;100.00;100114.05;1657350;86;20920;-83
2021/07/03 03:04:44;;;;;;;15.13;7.37;;;;;;;21.71;100.00;100112.02;1656535;85;21616;-84
2021/07/03 03:07:10;;;;;;;12.80;6.72;;;;;;;21.67;100.00;100108.92;1656741;85;21048;-80
2021/07/03 03:09:36;;;;;;;20.55;6.85;;;;;;;21.60;100.00;100106.78;1656768;86;21070;-82
2021/07/03 03:12:02;;;;;;;12.63;6.33;;;;;;;21.51;100.00;100111.59;1656802;86;20959;-83
2021/07/03 03:14:28;;;;;;;22.75;6.83;;;;;;;21.45;100.00;100112.98;1657437;86;21019;-83
2021/07/03 03:16:54;;;;;;;13.22;6.80;;;;;;;21.41;100.00;100118.33;1659514;85;20888;-85
2021/07/03 03:19:20;;;;;;;21.57;7.05;;;;;;;21.35;100.00;100116.94;1646266;86;21562;-83
2021/07/03 03:21:46;;;;;;;16.17;6.83;;;;;;;21.33;100.00;100114.55;1657576;85;21064;-84
2021/07/03 03:24:13;;;;;;;20.10;6.87;;;;;;;21.32;100.00;100112.14;1657872;86;21082;-87
2021/07/03 03:26:39;;;;;;;19.87;7.65;;;;;;;21.28;100.00;100101.08;1657959;85;20944;-84
2021/07/03 03:29:05;;;;;;;12.78;7.30;;;;;;;21.30;100.00;100098.00;1657277;86;21538;-81
2021/07/03 03:31:31;;;;;;;15.75;6.80;;;;;;;21.24;100.00;100097.44;1656841;85;20940;-82
2021/07/03 03:33:58;;;;;;;16.27;8.30;;;;;;;21.21;100.00;100096.75;1656890;85;39015;-83
2021/07/03 03:36:24;;;;;;;18.57;7.35;;;;;;;21.20;100.00;100097.87;1658726;86;20920;-83
2021/07/03 03:38:50;;;;;;;14.60;7.80;;;;;;;21.24;100.00;100101.55;1657454;85;20899;-83
2021/07/03 03:41:16;;;;;;;19.25;7.70;;;;;;;21.30;100.00;100099.38;1649643;86;21031;-82
2021/07/03 03:43:43;;;;;;;15.05;7.72;;;;;;;21.32;100.00;100099.27;1659674;85;21550;-85
2021/07/03 03:46:11;;;;;;;19.60;7.92;;;;;;;21.33;100.00;100109.65;1656872;86;21066;-82
2021/07/03 03:48:37;;;;;;;17.57;7.62;;;;;;;21.33;100.00;100104.96;1656576;86;20981;-83
2021/07/03 03:51:03;;;;;;;20.08;7.90;;;;;;;21.34;100.00;100103.02;1656672;86;21421;-85
2021/07/03 03:53:29;;;;;;;19.82;8.00;;;;;;;21.37;100.00;100098.81;1657519;86;20980;-88
2021/07/03 03:55:55;;;;;;;18.55;8.50;;;;;;;21.36;100.00;100099.39;1657396;85;20988;-83
2021/07/03 03:58:21;;;;;;;20.90;7.72;;;;;;;21.40;100.00;100103.61;1657952;85;21215;-83
2021/07/03 04:00:47;;;;;;;14.35;7.00;;;;;;;21.50;100.00;100101.75;1650094;86;20916;-83
2021/07/03 04:03:13;;;;;;;17.90;6.95;;;;;;;21.58;100.00;100092.61;1660126;85;21074;-83
2021/07/03 04:05:41;;;;;;;17.07;7.55;;;;;;;21.65;100.00;100096.95;1658151;85;21030;-83
2021/07/03 04:08:07;;;;;;;19.90;8.48;;;;;;;21.70;100.00;100095.89;1658387;85;21603;-83
2021/07/03 04:10:33;;;;;;;18.02;7.50;;;;;;;21.80;100.00;100090.52;1655067;85;21149;-84
2021/07/03 04:12:59;;;;;;;20.02;8.45;;;;;;;21.89;100.00;100091.16;1653698;86;21499;-83
2021/07/03 04:15:25;;;;;;;22.58;8.58;;;;;;;21.98;100.00;100092.61;1657093;86;21032;-83
2021/07/03 04:17:51;;;;;;;20.30;8.23;;;;;;;22.03;100.00;100080.59;1657952;86;21012;-83
2021/07/03 04:20:17;;;;;;;20.37;8.65;;;;;;;22.10;100.00;100082.15;1655861;86;20999;-83
2021/07/03 04:22:43;;;;;;;25.65;9.10;;;;;;;22.23;100.00;100079.58;1656719;86;21131;-83
2021/07/03 04:25:12;;;;;;;21.90;9.00;;;;;;;22.39;100.00;100063.73;1659888;84;21061;-85
2021/07/03 04:27:41;;;;;;;22.02;8.58;;;;;;;22.54;100.00;100054.70;1697732;83;20992;-87
2021/07/03 04:30:09;;;;;;;24.72;8.78;;;;;;;22.74;100.00;100036.95;1697759;83;21649;-86
2021/07/03 04:32:35;;;;;;;19.52;7.62;;;;;;;22.80;100.00;100021.79;1684934;84;21067;-85
2021/07/03 04:35:04;;;;;;;14.43;8.13;;;;;;;22.86;100.00;100020.36;1689540;85;21114;-85
2021/07/03 04:37:30;;;;;;;13.10;7.37;;;;;;;22.86;100.00;100024.48;1689292;85;21015;-88
2021/07/03 04:39:56;;;;;;;14.47;7.65;;;;;;;22.87;100.00;100035.69;1689491;84;20912;-86
2021/07/03 04:42:22;;;;;;;18.90;7.67;;;;;;;22.89;100.00;100034.76;1689705;84;20928;-85
2021/07/03 04:44:48;;;;;;;19.25;8.30;;;;;;;22.93;100.00;100052.12;1670008;85;21059;-85
2021/07/03 04:47:14;;;;;;;12.93;7.92;;;;;;;22.89;100.00;100057.53;1689568;84;21165;-82
2021/07/03 04:49:43;;;;;;;22.55;8.68;;;;;;;22.91;100.00;100076.40;1689562;84;20979;-88
2021/07/03 04:52:09;;;;;;;20.43;8.43;;;;;;;22.97;100.00;100065.41;1689652;85;21028;-85
2021/07/03 04:54:35;;;;;;;22.22;8.85;;;;;;;23.11;100.00;100057.48;1689451;84;20912;-85
2021/07/03 04:57:07;;;;;;;16.97;8.08;;;;;;;23.14;100.00;100049.09;1689586;85;21503;-85
2021/07/03 04:59:36;;;;;;;20.43;8.55;;;;;;;23.11;100.00;100058.85;1689564;85;21064;-86
2021/07/03 05:02:04;;;;;;;20.25;9.33;;;;;;;23.12;100.00;100066.55;1632782;87;21624;-92
2021/07/03 05:04:38;;;;;;;24.70;8.55;;;;;;;23.11;100.00;100061.59;1632845;87;21073;-89
2021/07/03 05:07:05;;;;;;;27.45;9.40;;;;;;;23.14;100.00;100076.59;1632784;87;21061;-90
2021/07/03 05:09:32;;;;;;;18.40;9.10;;;;;;;23.12;100.00;100089.91;1625903;86;21055;-88
2021/07/03 05:11:59;;;;;;;15.78;8.53;;;;;;;23.13;100.00;100093.66;1623356;88;21129;-89
2021/07/03 05:14:25;;;;;;;19.30;8.10;;;;;;;23.12;100.00;100107.20;1623212;88;21090;-89
2021/07/03 05:16:51;;;;;;;15.23;8.90;;;;;;;23.23;100.00;100108.80;1623323;88;21503;-85
2021/07/03 05:19:17;;;;;;;18.95;8.65;;;;;;;23.36;100.00;100108.13;1623216;88;21039;-86
2021/07/03 05:21:44;;;;;;;14.30;8.25;;;;;;;23.36;100.00;100106.76;1623491;88;21046;-85
2021/07/03 05:24:10;;;;;;;15.85;8.90;;;;;;;23.29;100.00;100107.95;1623181;88;22008;-80
2021/07/03 05:26:37;;;;;;;20.68;8.60;;;;;;;23.24;100.00;100104.13;1622820;88;21217;-77
2021/07/03 05:29:04;;;;;;;21.07;9.00;;;;;;;23.12;100.00;100121.52;1622698;88;21086;-83
2021/07/03 05:31:30;;;;;;;23.87;9.13;;;;;;;22.99;100.00;100124.92;1596859;88;21077;-80
2021/07/03 05:33:56;;;;;;;18.80;9.03;;;;;;;23.00;100.00;100139.45;1623087;88;21047;-80
2021/07/03 05:36:23;;;;;;;19.62;9.03;;;;;;;22.98;100.00;100174.77;1622971;88;21986;-80
2021/07/03 05:38:49;;;;;;;22.40;9.00;;;;;;;22.94;100.00;100210.34;1622961;88;21161;-80
2021/07/03 05:41:17;;;;;;;20.08;9.03;;;;;;;22.85;100.00;100224.28;1622734;88;21059;-79
2021/07/03 05:43:44;;;;;;;15.83;8.25;;;;;;;22.78;100.00;100242.51;1622812;88;21434;-76
2021/07/03 05:46:11;;;;;;;18.90;6.80;;;;;;;22.70;100.00;100237.96;1622706;88;21080;-83
2021/07/03 05:48:41;;;;;;;15.70;6.85;;;;;;;22.66;100.00;100244.16;1622925;88;21153;-77
2021/07/03 05:51:07;;;;;;;35.35;7.65;;;;;;;22.70;100.00;100245.62;1622873;88;21546;-80
2021/07/03 05:53:33;;;;;;;13.35;4.83;;;;;;;22.52;100.00;100236.09;1623052;88;20935;-77
2021/07/03 05:55:59;;;;;;;33.70;6.95;;;;;;;22.19;100.00;100262.61;1622797;88;21084;-81
2021/07/03 05:58:25;;;;;;;24.72;7.35;;;;;;;21.83;100.00;100272.25;1631799;86;21113;-84
2021/07/03 06:00:51;;;;;;;18.80;4.92;;;;;;;21.35;100.00;100292.38;1652162;86;21311;-92
2021/07/03 06:03:17;;;;;;;12.40;3.65;;;;;;;20.87;100.00;100172.75;1651955;86;20888;-93
2021/07/03 06:05:43;;;;;;;13.95;6.35;;;;;;;20.41;100.00;100186.97;1652241;86;21069;-91
2021/07/03 06:11:50;;;;;;;19.90;8.23;;;;;;;20.17;100.00;100168.48;1651987;86;21051;-93
2021/07/03 06:14:16;;;;;;;23.80;9.40;;;;;;;19.99;100.00;100162.13;1652154;86;21015;-94
2021/07/03 06:16:42;;;;;;;18.85;8.45;;;;;;;19.95;100.00;100171.00;1652023;86;21279;-95
2021/07/03 06:19:11;;;;;;;29.92;10.53;;;;;;;19.94;100.00;100159.84;1652123;86;21046;-91
2021/07/03 06:21:37;;;;;;;21.77;10.05;;;;;;;19.95;100.00;100149.69;1651803;86;21015;-94
2021/07/03 06:24:06;;;;;;;23.83;10.25;;;;;;;19.99;100.00;100153.92;1651757;85;21015;-88
2021/07/03 06:26:32;;;;;;;23.20;9.70;;;;;;;19.98;100.00;100165.44;1651856;86;21042;-90
2021/07/03 06:28:58;;;;;;;28.85;10.53;;;;;;;19.95;100.00;100161.42;1632902;86;21034;-92
2021/07/03 06:31:24;;;;;;;24.77;10.85;;;;;;;19.96;100.00;100172.59;1651840;86;20970;-89
2021/07/03 06:33:51;;;;;;;21.55;9.98;;;;;;;19.95;100.00;100157.90;1652013;86;20864;-93
2021/07/03 06:36:18;;;;;;;31.48;12.37;;;;;;;19.93;100.00;100147.84;1652102;86;21018;-93
2021/07/03 06:38:44;;;;;;;29.05;11.25;;;;;;;19.94;100.00;100146.16;1633153;86;21299;-94
2021/07/03 06:41:11;;;;;;;21.70;9.93;;;;;;;19.93;100.00;100162.31;1651978;86;20971;-94
2021/07/03 06:43:37;;;;;;;22.02;7.78;;;;;;;19.90;100.00;100194.44;1652054;86;21042;-94
2021/07/03 06:46:03;;;;;;;15.13;5.92;;;;;;;19.80;100.00;100193.47;1651545;86;21030;-95
2021/07/03 06:48:29;;;;;;;14.60;6.53;;;;;;;19.74;100.00;100194.23;1651924;86;20923;-95
2021/07/03 06:50:55;;;;;;;18.37;7.95;;;;;;;19.68;100.00;100176.98;1652086;86;21166;-94
2021/07/03 06:53:21;;;;;;;16.23;7.03;;;;;;;19.78;100.00;100164.28;1652900;85;20997;-94
2021/07/03 06:55:47;;;;;;;17.23;7.35;;;;;;;19.83;100.00;100170.94;1651897;86;21031;-93
2021/07/03 06:58:13;;;;;;;15.65;6.95;;;;;;;19.80;100.00;100207.15;1651938;86;20963;-92
2021/07/03 07:00:38;;;;;;;13.00;6.50;;;;;;;19.83;100.00;100224.83;1651660;86;21743;-92
2021/07/03 07:03:04;;;;;;;16.23;6.70;;;;;;;19.86;100.00;100225.53;1651945;86;21110;-93
2021/07/03 07:05:31;;;;;;;21.45;6.97;;;;;;;19.82;100.00;100211.70;1633040;86;20923;-91
2021/07/03 07:07:57;;;;;;;18.57;6.35;;;;;;;19.67;100.00;100198.61;1651678;86;20947;-92
2021/07/03 07:10:23;;;;;;;16.37;6.97;;;;;;;19.58;100.00;100204.66;1651958;86;21530;-90
2021/07/03 07:12:49;;;;;;;17.37;6.80;;;;;;;19.60;100.00;100203.20;1652026;86;21046;-92
2021/07/03 07:15:16;;;;;;;16.23;6.22;;;;;;;19.68;100.00;100190.66;1651898;86;21090;-89
2021/07/03 07:17:42;;;;;;;16.75;6.37;;;;;;;19.71;100.00;100188.63;1651626;86;21039;-90
2021/07/03 07:20:10;;;;;;;17.07;6.60;;;;;;;19.70;100.00;100193.84;1651913;86;20995;-94
2021/07/03 07:22:36;;;;;;;24.92;6.53;;;;;;;19.72;100.00;100199.79;1648616;86;21030;-88
2021/07/03 07:25:03;;;;;;;11.78;4.85;;;;;;;19.73;100.00;100189.08;1632913;86;21379;-88
2021/07/03 07:27:29;;;;;;;15.03;4.92;;;;;;;19.69;100.00;100175.27;1654750;86;21678;-87
2021/07/03 07:29:55;;;;;;;8.78;4.33;;;;;;;19.60;100.00;100172.34;1651830;86;20887;-85
2021/07/03 07:32:21;;;;;;;17.57;5.03;;;;;;;19.54;100.00;100154.53;1694717;83;21038;-85
2021/07/03 07:34:48;;;;;;;15.23;5.25;;;;;;;19.45;100.00;100145.81;1690232;83;20892;-89
2021/07/03 07:37:14;;;;;;;17.05;5.65;;;;;;;19.39;100.00;100156.70;1676481;85;21546;-91
2021/07/03 07:39:40;;;;;;;12.20;4.62;;;;;;;19.39;100.00;100160.00;1692460;84;21173;-91
2021/07/03 07:42:06;;;;;;;11.80;4.72;;;;;;;19.41;100.00;100165.91;1685780;85;21036;-87
2021/07/03 07:44:32;;;;;;;16.07;4.78;;;;;;;19.43;100.00;100189.63;1688244;85;20978;-92
2021/07/03 07:46:58;;;;;;;17.45;5.62;;;;;;;19.47;100.00;100205.59;1688437;84;21003;-92
2021/07/03 07:49:24;;;;;;;12.07;5.40;;;;;;;19.51;100.00;100201.88;1688403;85;20967;-86
2021/07/03 07:51:50;;;;;;;11.38;5.30;;;;;;;19.60;100.00;100214.71;1688337;84;21431;-89
2021/07/03 07:54:16;;;;;;;9.25;4.75;;;;;;;19.67;100.00;100222.64;1688371;84;20907;-89
2021/07/03 07:56:41;;;;;;;7.85;4.80;;;;;;;19.76;100.00;100228.06;1686923;84;21390;-84
2021/07/03 07:59:07;;;;;;;8.28;4.70;;;;;;;19.86;100.00;100226.91;1677052;85;21062;-85
2021/07/03 08:01:33;;;;;;;10.68;5.35;;;;;;;19.92;100.00;100223.63;1669619;86;20900;-86
2021/07/03 08:03:59;;;;;;;10.82;5.25;;;;;;;19.98;100.00;100221.51;1669565;86;21089;-85
2021/07/03 08:06:24;;;;;;;9.95;6.03;;;;;;;20.04;100.00;100226.22;1659489;85;21034;-85
2021/07/03 08:08:50;;;;;;;11.75;6.10;;;;;;;20.13;100.00;100217.38;1667286;85;20876;-87
2021/07/03 08:11:16;;;;;;;12.88;6.53;;;;;;;20.23;100.00;100209.33;1659354;85;20944;-88
2021/07/03 08:13:42;;;;;;;13.72;7.15;;;;;;;20.30;100.00;100211.78;1680906;85;20909;-89
2021/07/03 08:16:08;;;;;;;15.68;7.10;;;;;;;20.35;100.00;100209.39;1682601;84;20975;-88
2021/07/03 08:18:34;;;;;;;16.62;7.10;;;;;;;20.45;100.00;100206.83;1698292;84;20963;-85
2021/07/03 08:21:00;;;;;;;13.48;7.00;;;;;;;20.56;100.00;100199.27;1634326;87;20890;-87
2021/07/03 08:23:25;;;;;;;19.75;8.33;;;;;;;20.63;100.00;100197.34;1610384;88;20933;-88
2021/07/03 08:25:51;;;;;;;16.62;6.78;;;;;;;20.70;100.00;100195.41;1633238;87;20915;-87
2021/07/03 08:28:17;;;;;;;16.85;6.35;;;;;;;20.78;100.00;100187.69;1627545;87;21783;-88
2021/07/03 08:30:44;;;;;;;13.93;5.85;;;;;;;20.78;100.00;100196.70;1625940;87;21098;-86
2021/07/03 08:33:10;;;;;;;13.95;5.92;;;;;;;20.76;100.00;100201.70;1617426;88;21026;-85
2021/07/03 08:35:36;;;;;;;19.27;6.90;;;;;;;20.73;100.00;100205.12;1627393;88;21067;-90
2021/07/03 08:38:02;;;;;;;21.25;7.33;;;;;;;20.67;100.00;100210.58;1631793;87;20997;-88
2021/07/03 08:40:31;;;;;;;26.23;7.33;;;;;;;20.63;100.00;100208.29;1628254;87;21082;-92
2021/07/03 08:42:56;;;;;;;26.85;7.75;;;;;;;20.53;100.00;100212.80;1625445;88;21546;-88
2021/07/03 08:45:22;;;;;;;21.17;7.62;;;;;;;20.42;100.00;100212.41;1625989;88;20955;-88
2021/07/03 08:47:48;;;;;;;19.12;7.15;;;;;;;20.36;100.00;100201.42;1625999;88;21541;-88
2021/07/03 08:50:32;;;;;;;27.77;8.03;;;;;;;20.34;100.00;100200.38;1626043;88;21632;-91
2021/07/03 08:52:58;;;;;;;22.90;7.08;;;;;;;20.35;100.00;100197.07;1663787;85;21987;-89
2021/07/03 08:55:27;;;;;;;26.20;8.18;;;;;;;20.34;100.00;100196.27;1669460;86;20976;-89
2021/07/03 08:58:02;;;;;;;26.65;7.78;;;;;;;20.36;100.00;100209.64;1673464;85;21031;-90
2021/07/03 09:00:36;;;;;;;34.25;7.30;;;;;;;20.34;100.00;100196.27;1657803;86;21084;-91
2021/07/03 09:03:19;;;;;;;19.30;6.03;;;;;;;20.32;100.00;100195.00;1648210;86;21166;-87
2021/07/03 09:05:56;;;;;;;22.42;5.78;;;;;;;20.29;100.00;100193.73;1555390;90;21226;-88
2021/07/03 09:08:29;;;;;;;20.75;5.60;;;;;;;20.24;100.00;100206.27;1571240;89;21324;-88
2021/07/03 09:11:07;;;;;;;12.88;5.72;;;;;;;20.20;100.00;100201.22;1566616;90;21071;-87
2021/07/03 09:13:36;;;;;;;11.28;4.97;;;;;;;20.15;100.00;100217.28;1552231;90;21106;-87
2021/07/03 09:16:03;;;;;;;9.55;4.72;;;;;;;20.10;100.00;100219.42;1562213;90;21319;-88
2021/07/03 09:18:30;;;;;;;13.15;5.08;;;;;;;20.07;100.00;100207.77;1579081;90;21130;-86
2021/07/03 09:21:00;;;;;;;12.23;4.75;;;;;;;20.10;100.00;100208.47;1580419;90;21059;-88
2021/07/03 09:23:35;;;;;;;10.68;5.00;;;;;;;20.10;100.00;100217.48;1531035;93;21586;-86
2021/07/03 09:26:11;;;;;;;8.33;4.65;;;;;;;20.07;100.00;100215.98;1531134;93;21052;-87
2021/07/03 09:28:42;;;;;;;9.65;4.60;;;;;;;20.02;100.00;100197.81;1531226;93;21142;-90
2021/07/03 09:31:13;;;;;;;13.03;4.55;;;;;;;19.97;100.00;100191.17;1531370;93;21124;-84
2021/07/03 09:33:48;;;;;;;13.08;4.65;;;;;;;19.95;100.00;100189.35;1531242;93;21016;-87
2021/07/03 09:36:51;;;;;;;12.60;4.85;;;;;;;19.94;100.00;100194.56;1531318;93;21055;-87
2021/07/03 09:39:25;;;;;;;12.65;5.12;;;;;;;19.89;100.00;100196.16;1531102;93;21079;-89
2021/07/03 09:41:51;;;;;;;11.93;5.70;;;;;;;19.85;100.00;100192.46;1531255;93;21071;-88
2021/07/03 09:44:17;;;;;;;15.20;5.17;;;;;;;19.79;100.00;100175.45;1531065;93;22030;-91
2021/07/03 09:46:51;;;;;;;15.32;6.22;;;;;;;19.71;100.00;100162.08;1531209;93;20964;-92
2021/07/03 09:49:32;;;;;;;;;;;;;;;19.57;100.00;100164.23;1533367;93;21130;-87
2021/07/03 09:52:00;;;;;;;23.55;6.40;;;;;;;19.60;100.00;100160.03;1531381;93;20571;-89
2021/07/03 09:54:29;;;;;;;12.88;5.70;;;;;;;19.63;100.00;100158.80;1531391;93;21598;-89
2021/07/03 09:56:59;;;;;;;11.55;5.55;;;;;;;19.66;100.00;100154.64;1543781;90;21191;-88
2021/07/03 09:59:34;;;;;;;13.13;5.95;;;;;;;19.65;100.00;100144.84;1550525;92;21083;-86
2021/07/03 10:02:01;;;;;;;13.03;6.53;;;;;;;19.75;100.00;100130.77;1498151;95;21139;-85
2021/07/03 10:04:27;;;;;;;18.92;6.28;;;;;;;19.86;100.00;100128.45;1498119;95;21596;-85
2021/07/03 10:07:07;;;;;;;15.80;5.58;;;;;;;20.02;100.00;100131.37;1498113;94;20977;-83
2021/07/03 10:09:53;;;;;;;14.73;6.40;;;;;;;20.15;100.00;100126.20;1498402;95;22197;-84
2021/07/03 10:12:28;;;;;;;13.50;6.60;;;;;;;20.28;100.00;100132.52;1495033;94;21055;-84
2021/07/03 10:14:54;;;;;;;14.53;7.80;;;;;;;20.39;100.00;100111.23;1507142;95;21103;-83
2021/07/03 10:17:27;;;;;;;17.85;8.68;;;;;;;20.56;100.00;100101.24;1507051;95;21044;-88
2021/07/03 10:19:54;;;;;;;15.78;7.75;;;;;;;20.71;100.00;100095.14;1487354;96;21202;-86
2021/07/03 10:22:24;;;;;;;17.60;8.08;;;;;;;20.90;100.00;100083.61;1487351;96;21178;-86
2021/07/03 10:24:56;;;;;;;14.55;8.28;;;;;;;21.14;100.00;100078.70;1484447;96;21091;-86
2021/07/03 10:27:31;;;;;;;19.70;7.80;;;;;;;21.38;100.00;100064.77;1487241;96;21657;-86
2021/07/03 10:30:00;;;;;;;12.90;6.35;;;;;;;21.68;100.00;100074.31;1487275;96;21627;-87
2021/07/03 10:32:30;;;;;;;15.45;6.53;;;;;;;21.98;100.00;100077.52;1487307;96;21122;-88
2021/07/03 10:35:18;;;;;;;14.05;5.70;;;;;;;22.17;100.00;100081.57;1487286;96;21780;-86
2021/07/03 10:37:46;;;;;;;14.07;6.10;;;;;;;22.44;100.00;100092.28;1421857;100;21353;-86
2021/07/03 10:40:21;;;;;;;22.62;6.65;;;;;;;22.73;100.00;100102.64;1422281;100;21174;-86
2021/07/03 10:42:50;;;;;;;20.57;6.03;;;;;;;22.98;100.00;100106.06;1422269;100;21214;-88
2021/07/03 10:45:23;;;;;;;15.28;5.65;;;;;;;23.08;100.00;100091.17;1422319;100;21215;-85
2021/07/03 10:47:53;;;;;;;;;;;;;;;23.17;100.00;100086.87;1362939;105;21228;-88
2021/07/03 10:50:26;;;;;;;9.10;4.40;;;;;;;23.16;100.00;100079.78;1343533;106;20181;-88
2021/07/03 10:52:54;;;;;;;8.20;4.17;;;;;;;23.12;100.00;100085.20;1356371;104;21005;-87
2021/07/03 10:55:35;;;;;;;7.80;4.17;;;;;;;23.12;100.00;100091.28;1364184;103;21120;-87
2021/07/03 10:58:14;;;;;;;7.33;4.08;;;;;;;23.19;100.00;100085.15;1336839;106;21078;-87
2021/07/03 11:00:56;;;;;;;12.82;4.25;;;;;;;23.20;100.00;100095.77;1341770;105;21192;-86
2021/07/03 11:03:25;;;;;;;13.98;4.58;;;;;;;23.22;100.00;100100.93;1355993;105;21188;-84
2021/07/03 11:05:52;;;;;;;16.30;5.60;;;;;;;23.16;100.00;100099.61;1355482;105;21626;-86
2021/07/03 11:08:22;;;;;;;17.57;4.78;;;;;;;23.08;100.00;100087.64;1331325;106;21167;-86
2021/07/03 11:10:48;;;;;;;13.08;4.75;;;;;;;23.03;100.00;100086.52;1354165;104;21177;-86
2021/07/03 11:13:24;;;;;;;11.88;4.15;;;;;;;23.03;100.00;100083.78;1355841;105;21799;-86
2021/07/03 11:15:51;;;;;;;7.62;4.08;;;;;;;23.09;100.00;100090.63;1371104;104;21198;-86